Time;durP1;ratioP1;P1;durP2;ratioP2;P2;SDS_P1;SDS_P2;PMS_P1;PMS_P2;Temp;Humidity;BMP_temperature;BMP_pressure;BME280_temperature;BME280_humidity;BME280_pressure;Samples;Min_cycle;Max_cycle;Signal;HPM_P1;HPM_P2
2024/01/03 00:01:27;;;;;;;5.73;5.53;;;21.10;54.80;;;;;;5073870;28;20514;-66
2024/01/03 00:03:55;;;;;;;6.97;6.37;;;21.10;54.70;;;;;;5073042;28;20495;-66
2024/01/03 00:06:22;;;;;;;5.43;5.33;;;21.10;54.70;;;;;;5073562;28;20442;-66
2024/01/03 00:08:49;;;;;;;5.43;5.33;;;21.10;54.70;;;;;;5073804;28;20545;-65
2024/01/03 00:11:20;;;;;;;5.50;5.40;;;21.10;54.70;;;;;;5073473;28;20477;-66
2024/01/03 00:14:18;;;;;;;5.40;5.30;;;21.00;54.70;;;;;;5072966;28;20501;-66
2024/01/03 00:16:46;;;;;;;5.47;5.37;;;21.00;54.70;;;;;;5067890;28;20492;-65
2024/01/03 00:19:21;;;;;;;5.77;5.57;;;21.00;54.80;;;;;;5073479;28;20999;-67
2024/01/03 00:21:48;;;;;;;5.80;5.60;;;21.00;54.80;;;;;;5073211;28;20505;-66
2024/01/03 00:24:17;;;;;;;5.70;5.60;;;21.00;54.80;;;;;;5064520;28;20499;-66
2024/01/03 00:26:44;;;;;;;5.73;5.50;;;20.90;54.70;;;;;;5073244;28;20475;-66
2024/01/03 00:29:49;;;;;;;5.40;5.20;;;20.90;54.80;;;;;;5073266;28;20497;-66
2024/01/03 00:32:17;;;;;;;5.13;5.03;;;20.90;54.90;;;;;;5010250;28;20462;-66
2024/01/03 00:34:45;;;;;;;5.57;5.13;;;20.90;54.90;;;;;;5011080;28;20486;-66
2024/01/03 00:37:28;;;;;;;6.00;5.80;;;20.90;55.00;;;;;;5041136;28;20463;-66
2024/01/03 00:39:56;;;;;;;5.20;5.10;;;20.90;55.00;;;;;;5071434;28;20451;-66
2024/01/03 00:42:23;;;;;;;5.57;5.47;;;20.90;55.00;;;;;;5071922;28;21062;-67
2024/01/03 00:44:50;;;;;;;6.80;6.60;;;20.90;55.00;;;;;;5072025;28;20881;-66
2024/01/03 00:47:20;;;;;;;5.53;5.43;;;20.90;55.10;;;;;;5072991;28;20479;-67
2024/01/03 00:49:49;;;;;;;6.00;5.60;;;20.90;55.00;;;;;;5072963;28;20539;-65
2024/01/03 00:52:17;;;;;;;5.13;5.03;;;20.80;54.90;;;;;;5071819;28;20431;-67
2024/01/03 00:54:46;;;;;;;5.10;5.00;;;20.80;54.90;;;;;;5072038;28;20444;-65
2024/01/03 00:57:14;;;;;;;5.13;5.03;;;20.80;54.90;;;;;;5072737;28;20445;-66
2024/01/03 00:59:42;;;;;;;5.30;5.20;;;20.80;54.90;;;;;;5072767;28;20471;-66
2024/01/03 01:02:09;;;;;;;5.20;5.10;;;20.80;55.00;;;;;;5071628;28;20475;-66
2024/01/03 01:04:39;;;;;;;5.67;5.57;;;20.80;55.00;;;;;;5072644;28;20810;-67
2024/01/03 01:07:06;;;;;;;5.63;5.43;;;20.80;55.00;;;;;;5072542;28;20930;-66
2024/01/03 01:09:33;;;;;;;4.90;4.80;;;20.80;55.00;;;;;;5072524;28;20482;-66
2024/01/03 01:11:59;;;;;;;5.30;5.20;;;20.80;55.00;;;;;;5071500;28;20942;-67
2024/01/03 01:14:26;;;;;;;5.37;5.27;;;20.80;54.90;;;;;;5072186;28;20903;-66
2024/01/03 01:16:53;;;;;;;5.33;5.00;;;20.80;55.00;;;;;;5072337;28;20442;-67
2024/01/03 01:19:20;;;;;;;5.20;5.10;;;20.70;54.90;;;;;;5072267;28;20471;-65
2024/01/03 01:21:48;;;;;;;5.13;5.03;;;20.80;55.00;;;;;;5071216;28;20518;-66
2024/01/03 01:24:15;;;;;;;5.37;5.27;;;20.70;54.90;;;;;;5071942;28;20966;-66
2024/01/03 01:26:42;;;;;;;6.00;5.80;;;20.70;54.90;;;;;;5072378;28;20865;-65
2024/01/03 01:29:09;;;;;;;5.60;5.30;;;20.70;54.90;;;;;;5072060;28;20467;-66
2024/01/03 01:31:36;;;;;;;5.67;5.47;;;20.70;55.00;;;;;;5071286;28;20473;-67
2024/01/03 01:34:03;;;;;;;5.57;5.23;;;20.70;55.00;;;;;;5071993;28;20495;-66
2024/01/03 01:36:30;;;;;;;5.10;5.00;;;20.70;55.00;;;;;;5072173;28;20443;-67
2024/01/03 01:38:58;;;;;;;5.17;5.07;;;20.70;55.00;;;;;;5071341;28;20493;-65
2024/01/03 01:41:25;;;;;;;5.73;5.53;;;20.60;54.90;;;;;;5071711;28;20447;-66
2024/01/03 01:43:53;;;;;;;5.43;5.20;;;20.70;55.00;;;;;;5071673;28;21018;-66
2024/01/03 01:46:20;;;;;;;5.20;5.10;;;20.60;55.10;;;;;;5071851;28;20505;-66
2024/01/03 01:48:48;;;;;;;5.30;5.20;;;20.70;55.10;;;;;;5071094;28;20471;-66
2024/01/03 01:51:16;;;;;;;5.23;5.13;;;20.70;55.10;;;;;;5071545;28;20481;-67
2024/01/03 01:53:43;;;;;;;5.53;5.27;;;20.60;55.20;;;;;;5071648;28;20490;-67
2024/01/03 01:56:12;;;;;;;5.40;5.20;;;20.60;55.20;;;;;;5071365;28;20478;-66
2024/01/03 01:58:41;;;;;;;5.43;5.33;;;20.60;55.30;;;;;;5070924;28;20531;-66
2024/01/03 02:01:08;;;;;;;5.47;5.20;;;20.60;55.20;;;;;;5071434;28;20444;-66
2024/01/03 02:03:36;;;;;;;5.00;4.90;;;20.60;55.20;;;;;;5071619;28;20510;-66
2024/01/03 02:06:04;;;;;;;5.10;5.00;;;20.60;55.20;;;;;;5071987;28;20475;-65
2024/01/03 02:08:33;;;;;;;5.40;5.23;;;20.60;55.20;;;;;;5071031;28;21138;-66
2024/01/03 02:11:00;;;;;;;5.47;5.17;;;20.60;55.30;;;;;;5071726;28;20435;-67
2024/01/03 02:13:28;;;;;;;5.67;5.47;;;20.60;55.40;;;;;;5071509;28;20498;-67
2024/01/03 02:15:55;;;;;;;5.20;5.10;;;20.60;55.40;;;;;;5071586;28;20478;-67
2024/01/03 02:18:22;;;;;;;5.57;5.47;;;20.60;55.40;;;;;;5071032;28;20467;-66
2024/01/03 02:20:50;;;;;;;5.60;5.50;;;20.60;55.40;;;;;;5071103;28;20479;-67
2024/01/03 02:23:19;;;;;;;5.90;5.60;;;20.60;55.40;;;;;;5071347;28;20537;-67
2024/01/03 02:25:45;;;;;;;5.20;5.00;;;20.50;55.30;;;;;;5071405;28;20478;-66
2024/01/03 02:28:12;;;;;;;5.40;5.30;;;20.60;55.40;;;;;;5071303;28;20839;-66
2024/01/03 02:30:41;;;;;;;5.30;5.20;;;20.50;55.30;;;;;;5070584;28;20467;-66
2024/01/03 02:33:08;;;;;;;5.50;5.30;;;20.50;55.30;;;;;;5071214;28;20840;-66
2024/01/03 02:35:36;;;;;;;5.07;4.90;;;20.50;55.40;;;;;;5071360;28;20498;-66
2024/01/03 02:38:03;;;;;;;5.03;4.93;;;20.50;55.40;;;;;;5071252;28;20448;-66
2024/01/03 02:40:31;;;;;;;5.40;5.30;;;20.50;55.30;;;;;;5070372;28;20467;-67
2024/01/03 02:42:58;;;;;;;5.90;5.80;;;20.50;55.40;;;;;;5071255;28;20981;-65
2024/01/03 02:45:25;;;;;;;5.30;5.20;;;20.50;55.40;;;;;;5071179;28;20906;-66
2024/01/03 02:47:51;;;;;;;5.63;5.47;;;20.50;55.40;;;;;;5070358;28;20876;-67
2024/01/03 02:50:18;;;;;;;5.20;5.10;;;20.50;55.40;;;;;;5071068;28;20493;-66
2024/01/03 02:52:45;;;;;;;5.03;4.93;;;20.50;55.40;;;;;;5067191;28;20535;-66
2024/01/03 02:55:12;;;;;;;5.10;5.00;;;20.50;55.40;;;;;;5068224;28;20475;-66
2024/01/03 02:57:41;;;;;;;5.20;5.10;;;20.50;55.40;;;;;;5070346;28;20463;-66
2024/01/03 03:00:10;;;;;;;5.60;5.30;;;20.50;55.40;;;;;;5070991;28;20561;-66
2024/01/03 03:02:37;;;;;;;5.77;5.33;;;20.50;55.90;;;;;;5071038;28;20566;-66
2024/01/03 03:05:04;;;;;;;5.20;5.03;;;20.50;55.30;;;;;;5071034;28;20486;-67
2024/01/03 03:07:31;;;;;;;5.97;5.77;;;20.50;55.30;;;;;;5070077;28;20440;-66
2024/01/03 03:09:59;;;;;;;5.67;5.57;;;20.40;55.30;;;;;;5074751;28;20443;-67
2024/01/03 03:12:25;;;;;;;5.30;5.20;;;20.40;55.30;;;;;;5074569;28;20561;-67
2024/01/03 03:14:54;;;;;;;5.63;5.53;;;20.50;55.40;;;;;;5074609;28;20482;-66
2024/01/03 03:17:21;;;;;;;5.20;5.00;;;20.40;55.30;;;;;;5073669;28;20471;-66
2024/01/03 03:19:47;;;;;;;5.10;4.90;;;20.50;55.30;;;;;;5074620;28;20471;-66
2024/01/03 03:22:14;;;;;;;5.10;5.00;;;20.40;55.30;;;;;;5074141;28;20483;-67
2024/01/03 03:24:41;;;;;;;5.13;5.03;;;20.50;55.40;;;;;;5074420;28;20467;-66
2024/01/03 03:27:08;;;;;;;5.30;5.20;;;20.40;55.30;;;;;;5073739;28;21271;-67
2024/01/03 03:29:35;;;;;;;5.27;5.17;;;20.40;55.40;;;;;;5066441;28;20916;-66
2024/01/03 03:32:03;;;;;;;5.10;5.00;;;20.40;55.40;;;;;;5074328;28;20443;-67
2024/01/03 03:34:30;;;;;;;5.20;5.10;;;20.40;55.40;;;;;;5074274;28;20474;-66
2024/01/03 03:36:57;;;;;;;4.87;4.77;;;20.40;55.40;;;;;;5073522;28;20471;-66
2024/01/03 03:39:24;;;;;;;5.30;5.20;;;20.40;55.40;;;;;;5074264;28;20478;-66
2024/01/03 03:41:51;;;;;;;5.67;5.47;;;20.40;55.40;;;;;;5074373;28;20470;-66
2024/01/03 03:44:18;;;;;;;5.33;5.23;;;20.40;55.40;;;;;;5073878;28;20513;-66
2024/01/03 03:46:45;;;;;;;5.60;5.40;;;20.40;55.50;;;;;;5073348;28;20487;-67
2024/01/03 03:49:13;;;;;;;5.43;5.20;;;20.40;55.50;;;;;;5074060;28;20509;-66
2024/01/03 03:51:40;;;;;;;5.27;5.17;;;20.40;55.50;;;;;;5074024;28;20467;-66
2024/01/03 03:54:07;;;;;;;5.30;5.20;;;20.40;55.50;;;;;;5073170;28;20487;-67
2024/01/03 03:56:34;;;;;;;5.73;5.50;;;20.40;55.50;;;;;;5073744;28;20497;-66
2024/01/03 03:59:01;;;;;;;5.50;5.40;;;20.40;55.50;;;;;;5073987;28;20439;-65
2024/01/03 04:01:28;;;;;;;5.30;5.03;;;20.40;55.50;;;;;;5073830;28;20471;-67
2024/01/03 04:03:55;;;;;;;5.80;5.63;;;20.40;55.60;;;;;;5072853;28;20479;-67
2024/01/03 04:06:23;;;;;;;5.27;5.17;;;20.40;55.60;;;;;;5073624;28;20474;-67
2024/01/03 04:08:50;;;;;;;5.40;5.20;;;20.40;55.60;;;;;;5073778;28;20529;-65
2024/01/03 04:11:17;;;;;;;5.00;5.00;;;20.30;55.50;;;;;;5073581;28;20474;-67
2024/01/03 04:13:44;;;;;;;5.20;5.00;;;20.30;55.50;;;;;;5062131;23;20490;-66
2024/01/03 04:16:10;;;;;;;5.73;5.60;;;20.30;55.50;;;;;;5013154;28;20478;-66
2024/01/03 04:18:37;;;;;;;5.50;5.30;;;20.30;55.50;;;;;;5013729;28;20446;-66
2024/01/03 04:21:07;;;;;;;5.20;5.10;;;20.30;55.50;;;;;;5013690;28;20964;-66
2024/01/03 04:23:36;;;;;;;5.77;5.57;;;20.30;55.50;;;;;;5010625;28;20584;-66
2024/01/03 04:26:03;;;;;;;5.50;5.40;;;20.30;55.40;;;;;;5005558;28;20474;-66
2024/01/03 04:28:29;;;;;;;5.10;5.00;;;20.30;55.50;;;;;;5003004;28;20481;-66
2024/01/03 04:30:56;;;;;;;5.47;5.27;;;20.30;55.50;;;;;;5002044;28;20474;-66
2024/01/03 04:33:23;;;;;;;5.33;5.23;;;20.30;55.50;;;;;;5002900;28;20497;-66
2024/01/03 04:35:50;;;;;;;5.30;5.20;;;20.30;55.50;;;;;;5005426;28;20474;-66
2024/01/03 04:38:17;;;;;;;5.63;5.50;;;20.30;55.50;;;;;;5003270;28;20487;-66
2024/01/03 04:40:45;;;;;;;5.83;5.63;;;20.30;55.60;;;;;;5005198;28;20474;-66
2024/01/03 04:43:12;;;;;;;5.40;5.30;;;20.30;55.50;;;;;;5002522;28;21039;-66
2024/01/03 04:45:39;;;;;;;5.93;5.73;;;20.30;55.50;;;;;;5005182;28;20472;-66
2024/01/03 04:48:07;;;;;;;5.50;5.40;;;20.30;55.60;;;;;;5005214;28;20469;-66
2024/01/03 04:50:34;;;;;;;6.00;5.77;;;20.30;55.60;;;;;;5001978;28;20911;-66
2024/01/03 04:53:01;;;;;;;5.60;5.50;;;20.30;55.50;;;;;;5001306;28;20494;-65
2024/01/03 04:55:29;;;;;;;5.90;5.70;;;20.30;55.50;;;;;;5003017;28;20529;-66
2024/01/03 04:57:58;;;;;;;5.80;5.60;;;20.40;55.60;;;;;;5005087;28;20458;-66
2024/01/03 05:00:25;;;;;;;5.67;5.57;;;20.40;55.60;;;;;;5003106;28;20476;-66
2024/01/03 05:02:52;;;;;;;6.03;5.93;;;20.40;55.60;;;;;;5001487;28;20514;-66
2024/01/03 05:05:19;;;;;;;7.30;6.87;;;20.40;55.60;;;;;;4994299;28;20475;-66
2024/01/03 05:07:46;;;;;;;6.30;6.20;;;20.40;55.50;;;;;;5005069;28;20487;-67
2024/01/03 05:10:13;;;;;;;6.00;5.90;;;20.40;55.60;;;;;;5004761;28;20489;-65
2024/01/03 05:12:40;;;;;;;6.30;6.20;;;20.40;55.70;;;;;;5001214;28;20471;-66
2024/01/03 05:15:10;;;;;;;6.93;6.83;;;20.40;55.70;;;;;;5000704;28;20485;-66
2024/01/03 05:17:37;;;;;;;6.57;6.47;;;20.40;55.70;;;;;;5004571;28;20438;-67
2024/01/03 05:20:05;;;;;;;6.60;6.40;;;20.40;55.70;;;;;;5004706;28;20559;-66
2024/01/03 05:22:32;;;;;;;6.90;6.70;;;20.40;55.80;;;;;;5001758;28;20473;-66
2024/01/03 05:25:00;;;;;;;6.87;6.67;;;20.40;55.80;;;;;;5000380;28;20516;-66
2024/01/03 05:27:26;;;;;;;6.60;6.50;;;20.40;55.90;;;;;;5002858;28;20474;-66
2024/01/03 05:29:53;;;;;;;6.90;6.70;;;20.40;55.70;;;;;;5004542;28;20540;-66
2024/01/03 05:32:22;;;;;;;7.10;6.90;;;20.50;55.60;;;;;;5002783;28;20956;-66
2024/01/03 05:34:48;;;;;;;9.00;8.17;;;20.40;55.30;;;;;;4997495;28;20497;-66
2024/01/03 05:37:15;;;;;;;12.03;9.00;;;20.50;55.40;;;;;;5004091;28;20470;-66
2024/01/03 05:39:42;;;;;;;13.23;9.30;;;20.50;55.70;;;;;;5000894;28;20546;-66
2024/01/03 05:42:09;;;;;;;11.60;8.97;;;20.50;60.10;;;;;;5000111;28;20479;-67
2024/01/03 05:44:36;;;;;;;8.90;8.20;;;20.50;67.10;;;;;;5003600;28;20568;-66
2024/01/03 05:47:04;;;;;;;9.40;8.47;;;20.50;68.20;;;;;;4986489;28;20549;-68
2024/01/03 05:49:34;;;;;;;9.47;8.50;;;20.50;65.50;;;;;;5001656;28;20447;-67
2024/01/03 05:52:01;;;;;;;11.37;9.87;;;20.50;62.40;;;;;;5003962;28;20446;-67
2024/01/03 05:54:28;;;;;;;9.53;8.70;;;20.60;61.10;;;;;;5001898;28;20504;-67
2024/01/03 05:56:55;;;;;;;9.37;8.60;;;20.60;60.40;;;;;;5000457;28;20455;-67
2024/01/03 05:59:22;;;;;;;9.60;8.90;;;20.70;60.00;;;;;;5001415;28;20939;-67
2024/01/03 06:01:49;;;;;;;10.37;9.10;;;20.70;59.70;;;;;;5003789;28;20549;-67
2024/01/03 06:04:16;;;;;;;8.80;8.23;;;20.80;59.40;;;;;;5003347;28;20521;-68
2024/01/03 06:06:44;;;;;;;13.47;9.80;;;20.80;59.10;;;;;;5000327;28;20477;-67
2024/01/03 06:09:12;;;;;;;9.43;8.80;;;20.80;58.80;;;;;;5000368;28;20981;-67
2024/01/03 06:11:39;;;;;;;8.83;8.20;;;20.80;58.70;;;;;;5003370;28;20472;-67
2024/01/03 06:14:06;;;;;;;8.60;8.00;;;20.90;58.60;;;;;;5003486;28;20502;-67
2024/01/03 06:16:33;;;;;;;9.53;8.53;;;20.90;58.30;;;;;;5001199;28;20496;-68
2024/01/03 06:19:00;;;;;;;8.37;7.70;;;20.90;58.60;;;;;;5000244;28;20502;-67
2024/01/03 06:21:27;;;;;;;7.70;7.40;;;20.90;57.90;;;;;;5001700;28;20486;-67
2024/01/03 06:23:55;;;;;;;7.93;7.53;;;20.90;57.80;;;;;;5003536;28;20488;-67
2024/01/03 06:26:24;;;;;;;8.90;8.07;;;21.00;57.70;;;;;;5002524;28;20484;-67
2024/01/03 06:28:51;;;;;;;8.20;7.70;;;21.00;57.50;;;;;;5000233;28;20454;-68
2024/01/03 06:31:21;;;;;;;9.37;8.87;;;21.00;57.40;;;;;;5000304;28;20451;-67
2024/01/03 06:33:48;;;;;;;7.67;7.33;;;21.00;57.20;;;;;;4999111;28;20966;-67
2024/01/03 06:36:15;;;;;;;9.40;8.90;;;21.00;57.10;;;;;;5000221;28;20438;-67
2024/01/03 06:38:42;;;;;;;9.37;9.00;;;21.00;57.00;;;;;;4992151;28;20863;-68
2024/01/03 06:41:10;;;;;;;9.17;8.53;;;21.10;57.00;;;;;;4999898;28;20478;-67
2024/01/03 06:43:38;;;;;;;9.97;9.37;;;21.00;56.80;;;;;;5004526;28;21012;-68
2024/01/03 06:46:05;;;;;;;9.27;8.67;;;21.10;56.70;;;;;;5007312;28;20446;-67
2024/01/03 06:48:32;;;;;;;9.23;8.83;;;21.10;56.60;;;;;;5005152;28;20460;-68
2024/01/03 06:51:02;;;;;;;8.83;8.60;;;21.10;56.50;;;;;;5003918;28;20482;-67
2024/01/03 06:53:29;;;;;;;8.03;7.47;;;21.10;56.40;;;;;;5005190;28;20463;-67
2024/01/03 06:55:56;;;;;;;7.97;7.57;;;21.10;56.40;;;;;;5007150;28;20481;-67
2024/01/03 06:58:24;;;;;;;7.23;6.73;;;21.20;56.30;;;;;;5006511;28;20545;-67
2024/01/03 07:00:51;;;;;;;8.30;7.90;;;21.20;56.20;;;;;;5003610;28;20858;-68
2024/01/03 07:03:18;;;;;;;7.00;6.80;;;21.20;56.10;;;;;;5003374;28;20916;-67
2024/01/03 07:05:45;;;;;;;8.40;7.83;;;21.20;56.10;;;;;;5006881;28;20470;-67
2024/01/03 07:08:11;;;;;;;8.23;7.83;;;21.20;56.00;;;;;;5006999;28;20489;-68
2024/01/03 07:10:38;;;;;;;7.90;7.63;;;21.20;55.90;;;;;;5003820;28;20470;-67
2024/01/03 07:13:05;;;;;;;8.20;7.70;;;21.20;55.80;;;;;;5003157;28;20513;-67
2024/01/03 07:15:33;;;;;;;7.70;7.40;;;21.20;55.80;;;;;;5005290;28;20466;-68
2024/01/03 07:18:01;;;;;;;7.37;7.07;;;21.20;56.20;;;;;;5006650;28;20442;-67
2024/01/03 07:20:28;;;;;;;7.97;7.53;;;21.20;55.60;;;;;;5005136;28;20478;-67
2024/01/03 07:22:55;;;;;;;8.07;7.80;;;21.30;55.60;;;;;;5003230;28;20478;-67
2024/01/03 07:25:21;;;;;;;7.50;7.20;;;21.30;55.60;;;;;;5003499;28;20857;-67
2024/01/03 07:27:48;;;;;;;7.90;7.60;;;21.30;55.50;;;;;;5006573;28;20450;-67
2024/01/03 07:30:15;;;;;;;7.60;7.40;;;21.30;55.50;;;;;;5006480;28;20207;-67
2024/01/03 07:32:43;;;;;;;7.90;7.50;;;21.30;55.40;;;;;;5002997;28;20497;-67
2024/01/03 07:35:10;;;;;;;7.43;7.00;;;21.40;55.40;;;;;;5003055;28;20475;-67
2024/01/03 07:37:37;;;;;;;8.03;7.70;;;21.40;55.30;;;;;;5005373;28;20478;-67
2024/01/03 07:40:05;;;;;;;7.77;7.47;;;21.40;55.30;;;;;;5006236;28;20478;-67
2024/01/03 07:42:32;;;;;;;7.67;7.37;;;21.40;55.20;;;;;;5004444;28;20474;-67
2024/01/03 07:44:58;;;;;;;8.33;8.03;;;21.40;55.10;;;;;;5002654;28;20511;-67
2024/01/03 07:47:25;;;;;;;7.57;7.23;;;21.40;55.10;;;;;;5003551;28;20986;-67
2024/01/03 07:49:54;;;;;;;6.70;6.60;;;21.40;55.00;;;;;;5006120;28;20450;-67
2024/01/03 07:52:20;;;;;;;7.57;7.17;;;21.40;54.90;;;;;;5005840;28;20477;-67
2024/01/03 07:54:47;;;;;;;7.43;7.23;;;21.40;54.90;;;;;;5002187;28;20502;-67
2024/01/03 07:57:14;;;;;;;7.03;6.77;;;21.40;54.80;;;;;;5002593;28;20482;-67
2024/01/03 07:59:44;;;;;;;7.40;7.20;;;21.50;54.90;;;;;;5005479;28;20470;-67
2024/01/03 08:02:11;;;;;;;8.60;8.23;;;21.50;54.80;;;;;;5005893;28;20817;-67
2024/01/03 08:04:39;;;;;;;8.20;7.90;;;21.50;54.80;;;;;;5003098;28;20532;-67
2024/01/03 08:07:07;;;;;;;8.10;7.80;;;21.50;54.70;;;;;;5002532;28;20447;-67
2024/01/03 08:09:34;;;;;;;8.87;8.20;;;21.50;54.70;;;;;;5004259;28;20994;-67
2024/01/03 08:12:01;;;;;;;8.10;7.70;;;21.50;54.60;;;;;;5005709;28;20866;-67
2024/01/03 08:14:28;;;;;;;7.70;7.40;;;21.50;54.60;;;;;;5004304;28;20493;-67
2024/01/03 08:16:55;;;;;;;8.70;8.30;;;21.50;54.60;;;;;;5002308;28;20482;-67
2024/01/03 08:19:22;;;;;;;9.07;8.17;;;21.50;54.50;;;;;;5002407;28;20446;-67
2024/01/03 08:21:50;;;;;;;7.43;7.23;;;21.50;54.40;;;;;;5005408;28;20481;-67
2024/01/03 08:24:18;;;;;;;7.73;7.53;;;21.50;54.40;;;;;;5005331;28;20489;-67
2024/01/03 08:26:46;;;;;;;7.50;7.30;;;21.50;54.30;;;;;;5002040;28;20466;-68
2024/01/03 08:29:13;;;;;;;7.57;7.20;;;21.60;54.40;;;;;;5002019;28;20451;-68
2024/01/03 08:31:40;;;;;;;7.60;7.30;;;21.60;54.40;;;;;;5004541;28;20475;-68
2024/01/03 08:34:07;;;;;;;8.13;7.87;;;21.60;54.30;;;;;;5005177;28;20524;-68
2024/01/03 08:36:41;;;;;;;9.90;8.97;;;21.60;54.30;;;;;;5003397;28;20949;-69
2024/01/03 08:39:09;;;;;;;7.80;7.50;;;21.60;54.30;;;;;;5002071;28;21057;-67
2024/01/03 08:41:38;;;;;;;7.60;7.20;;;21.60;54.30;;;;;;5003779;28;20479;-68
2024/01/03 08:44:06;;;;;;;7.13;6.93;;;21.60;54.20;;;;;;5005012;28;20920;-68
2024/01/03 08:46:34;;;;;;;7.87;7.60;;;21.60;54.20;;;;;;5003484;28;20450;-67
2024/01/03 08:49:03;;;;;;;7.70;7.50;;;21.60;54.10;;;;;;5001661;28;20568;-67
2024/01/03 08:51:31;;;;;;;7.83;7.57;;;21.60;54.10;;;;;;5002601;28;20482;-68
2024/01/03 08:53:58;;;;;;;7.83;7.53;;;21.60;54.00;;;;;;5004939;28;20872;-68
2024/01/03 08:56:25;;;;;;;8.20;8.00;;;21.60;54.00;;;;;;5004240;28;20450;-68
2024/01/03 08:58:54;;;;;;;7.97;7.77;;;21.60;54.00;;;;;;5001420;28;20478;-68
2024/01/03 09:01:22;;;;;;;8.17;7.90;;;21.70;54.00;;;;;;5001392;28;20551;-68
2024/01/03 09:03:50;;;;;;;8.63;8.23;;;21.70;54.00;;;;;;5004679;28;20524;-67
2024/01/03 09:06:19;;;;;;;8.43;8.13;;;21.70;54.00;;;;;;5003840;28;20484;-67
2024/01/03 09:08:50;;;;;;;7.80;7.63;;;21.70;54.00;;;;;;5001187;28;20879;-67
2024/01/03 09:11:18;;;;;;;8.03;7.83;;;21.70;53.90;;;;;;5001349;28;20457;-67
2024/01/03 09:13:49;;;;;;;7.43;7.23;;;21.70;53.90;;;;;;5003997;28;20496;-67
2024/01/03 09:16:19;;;;;;;7.90;7.70;;;21.70;53.80;;;;;;5004562;28;20449;-68
2024/01/03 09:18:46;;;;;;;7.77;7.57;;;21.70;53.80;;;;;;5001261;28;20467;-68
2024/01/03 09:21:14;;;;;;;7.80;7.60;;;21.70;53.70;;;;;;5000943;28;20449;-68
2024/01/03 09:23:41;;;;;;;8.00;7.80;;;21.70;53.70;;;;;;5003387;28;20509;-68
2024/01/03 09:26:09;;;;;;;7.97;7.77;;;21.70;53.60;;;;;;5004232;28;20510;-68
2024/01/03 09:28:37;;;;;;;8.00;7.67;;;21.70;53.60;;;;;;5002380;28;20457;-68
2024/01/03 09:31:04;;;;;;;8.20;7.90;;;21.80;53.70;;;;;;5000848;28;20587;-68
2024/01/03 09:33:32;;;;;;;8.20;8.00;;;21.80;53.70;;;;;;5001847;28;20503;-68
2024/01/03 09:35:59;;;;;;;8.50;8.30;;;21.80;53.60;;;;;;5004229;28;20992;-67
2024/01/03 09:38:26;;;;;;;8.33;8.13;;;21.80;53.50;;;;;;5003618;28;20481;-68
2024/01/03 09:40:53;;;;;;;7.70;7.50;;;21.80;53.50;;;;;;5000778;28;20451;-68
2024/01/03 09:43:20;;;;;;;7.30;7.20;;;21.80;53.50;;;;;;5000736;28;20490;-68
2024/01/03 09:45:48;;;;;;;7.53;7.30;;;21.80;53.40;;;;;;5003625;28;20520;-68
2024/01/03 09:48:15;;;;;;;7.87;7.60;;;21.80;53.40;;;;;;5003847;28;20473;-68
2024/01/03 09:50:45;;;;;;;8.17;7.97;;;21.80;53.40;;;;;;5001290;28;20477;-68
2024/01/03 09:53:13;;;;;;;8.30;8.10;;;21.80;53.40;;;;;;5000420;28;20509;-68
2024/01/03 09:55:41;;;;;;;8.40;8.20;;;21.80;53.40;;;;;;5002535;28;20470;-68
2024/01/03 09:58:07;;;;;;;8.63;8.07;;;21.80;53.30;;;;;;5003711;28;20478;-68
2024/01/03 10:00:34;;;;;;;7.77;7.47;;;21.80;53.80;;;;;;5002354;28;20513;-68
2024/01/03 10:03:02;;;;;;;7.97;7.80;;;21.80;53.20;;;;;;5000363;28;20490;-68
2024/01/03 10:05:29;;;;;;;7.57;7.37;;;21.80;53.20;;;;;;5000787;28;21009;-68
2024/01/03 10:07:58;;;;;;;7.47;7.27;;;21.80;53.20;;;;;;5003611;28;20549;-69
2024/01/03 10:10:33;;;;;;;7.03;6.90;;;21.80;53.20;;;;;;5003487;28;20829;-68
2024/01/03 10:15:33;;;;;;;7.20;7.10;;;21.80;53.10;;;;;;5030235;23;20901;-68
2024/01/03 10:18:07;;;;;;;6.90;6.80;;;21.80;53.10;;;;;;5011592;28;20577;-68
2024/01/03 10:20:34;;;;;;;8.10;7.80;;;21.80;53.10;;;;;;5011498;28;20441;-68
2024/01/03 10:23:11;;;;;;;8.03;7.73;;;21.80;53.10;;;;;;5011491;28;20520;-68
2024/01/03 10:25:38;;;;;;;7.80;7.60;;;21.80;53.10;;;;;;5001597;28;20557;-68
2024/01/03 10:28:07;;;;;;;8.10;7.90;;;21.90;53.10;;;;;;5000147;28;20482;-68
2024/01/03 10:30:34;;;;;;;7.87;7.57;;;21.80;53.00;;;;;;5001070;28;20447;-68
2024/01/03 10:33:03;;;;;;;8.50;8.20;;;21.90;53.60;;;;;;5003382;28;20482;-68
2024/01/03 10:35:31;;;;;;;7.90;7.70;;;21.90;53.00;;;;;;5002839;28;20474;-68
2024/01/03 10:38:00;;;;;;;8.30;8.00;;;21.90;52.90;;;;;;5000001;28;20471;-68
2024/01/03 10:40:29;;;;;;;7.67;7.50;;;21.90;53.00;;;;;;4999974;28;20482;-68
2024/01/03 10:42:57;;;;;;;7.60;7.40;;;21.90;52.90;;;;;;5003150;28;20473;-68
2024/01/03 10:45:24;;;;;;;7.13;6.93;;;21.90;52.90;;;;;;5003126;28;20902;-68
2024/01/03 10:47:52;;;;;;;7.23;7.03;;;21.90;52.90;;;;;;4991795;28;20479;-68
2024/01/03 10:50:19;;;;;;;8.50;8.30;;;21.90;52.90;;;;;;4999979;28;20501;-68
2024/01/03 10:52:47;;;;;;;7.80;7.50;;;21.90;52.80;;;;;;5002389;28;20451;-68
2024/01/03 10:55:24;;;;;;;8.27;8.03;;;21.90;52.80;;;;;;5003178;28;20501;-68
2024/01/03 10:58:00;;;;;;;7.20;7.00;;;21.90;52.80;;;;;;4999831;28;20525;-68
2024/01/03 11:00:41;;;;;;;7.23;7.03;;;21.90;52.80;;;;;;4999812;28;20450;-67
2024/01/03 11:03:19;;;;;;;8.80;8.50;;;21.90;52.70;;;;;;5003130;28;20456;-68
2024/01/03 11:05:57;;;;;;;7.70;7.50;;;21.90;52.70;;;;;;5000475;28;20513;-68
2024/01/03 11:08:31;;;;;;;7.60;7.40;;;21.90;52.70;;;;;;4999864;28;20478;-68
2024/01/03 11:10:59;;;;;;;8.77;8.50;;;21.90;52.70;;;;;;4992464;28;20873;-68
2024/01/03 11:13:28;;;;;;;8.50;8.30;;;21.90;52.60;;;;;;4999542;28;20502;-68
2024/01/03 11:15:55;;;;;;;8.90;8.50;;;21.90;52.70;;;;;;4999770;28;20474;-68
2024/01/03 11:18:52;;;;;;;8.20;8.00;;;21.90;52.70;;;;;;4999705;28;20482;-68
2024/01/03 11:21:41;;;;;;;7.80;7.60;;;21.90;52.70;;;;;;4994985;28;20829;-68
2024/01/03 11:24:46;;;;;;;7.63;7.43;;;21.90;52.70;;;;;;4993519;28;20463;-68
2024/01/03 11:27:21;;;;;;;7.83;7.63;;;21.90;52.60;;;;;;4994259;28;20442;-68
2024/01/03 11:29:50;;;;;;;8.27;7.90;;;22.00;52.70;;;;;;5004238;28;20506;-68
2024/01/03 11:32:26;;;;;;;8.00;7.80;;;22.00;52.70;;;;;;5006367;28;20438;-68
2024/01/03 11:34:54;;;;;;;7.80;7.60;;;22.00;52.70;;;;;;4995044;28;20468;-68
2024/01/03 11:37:36;;;;;;;7.60;7.40;;;22.00;52.70;;;;;;5003100;28;20438;-68
2024/01/03 11:40:04;;;;;;;7.37;7.17;;;22.00;52.60;;;;;;4996139;28;20843;-68
2024/01/03 11:42:32;;;;;;;7.80;7.60;;;22.00;52.60;;;;;;5003007;28;20442;-68
2024/01/03 11:45:06;;;;;;;7.60;7.40;;;22.00;52.50;;;;;;5006086;28;20458;-68
2024/01/03 11:47:34;;;;;;;8.20;8.00;;;22.00;52.50;;;;;;5005441;28;20907;-68
2024/01/03 11:50:04;;;;;;;8.87;8.67;;;22.00;52.50;;;;;;5002752;28;20534;-68
2024/01/03 11:52:35;;;;;;;9.03;8.77;;;22.10;52.60;;;;;;5002743;28;20485;-68
2024/01/03 11:55:07;;;;;;;8.10;7.90;;;22.10;52.60;;;;;;5006009;28;21042;-67
2024/01/03 11:57:38;;;;;;;8.70;8.50;;;22.10;52.60;;;;;;5005202;28;20450;-68
2024/01/03 12:00:09;;;;;;;8.17;7.97;;;22.10;52.50;;;;;;5002475;28;20497;-68
2024/01/03 12:02:36;;;;;;;8.10;7.90;;;22.10;52.60;;;;;;5003280;28;20526;-67
2024/01/03 12:05:04;;;;;;;10.80;10.27;;;22.10;52.60;;;;;;5005705;28;20532;-68
2024/01/03 12:07:33;;;;;;;9.37;8.70;;;22.00;52.50;;;;;;5005528;28;20512;-67
2024/01/03 12:10:01;;;;;;;8.80;8.60;;;22.10;52.60;;;;;;5002400;28;20471;-68
2024/01/03 12:12:28;;;;;;;8.57;8.07;;;22.10;52.60;;;;;;5002417;28;20467;-68
2024/01/03 12:14:55;;;;;;;8.40;8.20;;;22.10;52.60;;;;;;4994118;28;20884;-68
2024/01/03 12:17:28;;;;;;;8.50;8.30;;;22.10;52.60;;;;;;5002328;28;20478;-68
2024/01/03 12:19:57;;;;;;;8.47;8.27;;;22.10;52.50;;;;;;5005352;28;20477;-67
2024/01/03 12:22:24;;;;;;;8.33;8.00;;;22.10;52.50;;;;;;5005446;28;20450;-67
2024/01/03 12:24:51;;;;;;;8.17;7.97;;;22.10;52.50;;;;;;5002386;28;20495;-67
2024/01/03 12:27:23;;;;;;;8.40;8.20;;;22.10;52.50;;;;;;5002276;28;20904;-68
2024/01/03 12:29:50;;;;;;;8.00;7.80;;;22.10;52.50;;;;;;5004592;28;20447;-68
2024/01/03 12:32:19;;;;;;;8.47;8.27;;;22.10;52.50;;;;;;5005332;28;20872;-68
2024/01/03 12:34:49;;;;;;;8.17;7.97;;;22.10;52.50;;;;;;5003148;28;20548;-68
2024/01/03 12:37:16;;;;;;;8.10;7.90;;;22.10;52.50;;;;;;5001989;28;20443;-68
2024/01/03 12:39:43;;;;;;;8.63;8.23;;;22.10;52.60;;;;;;5003396;28;20478;-68
2024/01/03 12:42:12;;;;;;;8.47;8.27;;;22.10;52.60;;;;;;5005157;28;20485;-68
2024/01/03 12:44:42;;;;;;;8.10;7.97;;;22.10;52.60;;;;;;5003900;28;20526;-68
2024/01/03 12:47:10;;;;;;;8.13;7.90;;;22.10;52.50;;;;;;5001780;28;20896;-68
2024/01/03 12:49:39;;;;;;;8.43;8.03;;;22.10;52.50;;;;;;5002382;28;20528;-68
2024/01/03 12:52:07;;;;;;;7.90;7.70;;;22.10;52.50;;;;;;5004845;28;20446;-68
2024/01/03 12:54:34;;;;;;;8.00;7.80;;;22.10;52.50;;;;;;5004418;28;20497;-68